Time;durP1;ratioP1;P1;durP2;ratioP2;P2;SDS_P1;SDS_P2;PMS_P1;PMS_P2;Temp;Humidity;BMP_temperature;BMP_pressure;BME280_temperature;BME280_humidity;BME280_pressure;Samples;Min_cycle;Max_cycle;Signal;HPM_P1;HPM_P2
2024/01/17 00:01:37;;;;;;;23.07;12.77;;;-8.90;99.90;-10.20;99273;;;;580489;241;35177;-78
2024/01/17 00:04:05;;;;;;;23.10;11.57;;;-8.80;99.90;-10.20;99276;;;;585412;241;24063;-79
2024/01/17 00:06:37;;;;;;;20.00;11.10;;;-8.80;99.90;-10.20;99260;;;;585389;241;24091;-80
2024/01/17 00:09:04;;;;;;;15.80;8.43;;;-8.80;99.90;-10.20;99255;;;;594180;241;24154;-79
2024/01/17 00:11:34;;;;;;;20.17;10.47;;;-8.80;99.90;-10.20;99248;;;;594483;241;24068;-79
2024/01/17 00:14:00;;;;;;;18.67;11.10;;;-8.80;99.90;-10.20;99248;;;;583108;240;24067;-79
2024/01/17 00:16:28;;;;;;;16.60;11.20;;;-8.80;99.90;-10.20;99244;;;;586639;241;24189;-79
2024/01/17 00:18:57;;;;;;;21.13;13.90;;;-8.70;99.90;-10.20;99239;;;;586727;241;24090;-79
2024/01/17 00:21:26;;;;;;;21.43;11.60;;;-8.70;99.90;-10.10;99242;;;;586601;241;24063;-79
2024/01/17 00:23:54;;;;;;;20.37;11.37;;;-8.70;99.90;-10.10;99249;;;;585464;241;24043;-80
2024/01/17 00:26:22;;;;;;;23.07;14.53;;;-8.70;99.90;-10.10;99255;;;;588902;241;24066;-79
2024/01/17 00:28:50;;;;;;;26.00;14.27;;;-8.70;99.90;-10.00;99249;;;;595068;241;24093;-79
2024/01/17 00:31:18;;;;;;;31.77;15.90;;;-8.60;99.90;-10.00;99249;;;;586037;241;24094;-79
2024/01/17 00:33:45;;;;;;;26.17;14.83;;;-8.60;99.90;-9.90;99258;;;;594788;241;24102;-79
2024/01/17 00:36:14;;;;;;;27.63;16.67;;;-8.60;99.90;-9.90;99264;;;;594758;241;24058;-79
2024/01/17 00:38:41;;;;;;;26.57;15.33;;;-8.50;99.90;-9.90;99257;;;;594867;241;24052;-80
2024/01/17 00:41:09;;;;;;;32.67;17.47;;;-8.50;99.90;-9.90;99260;;;;594673;241;24073;-79
2024/01/17 00:43:37;;;;;;;25.23;16.40;;;-8.50;99.90;-9.90;99259;;;;594808;241;24051;-79
2024/01/17 00:46:05;;;;;;;31.10;16.20;;;-8.50;99.90;-9.90;99254;;;;594838;241;24074;-79
2024/01/17 00:48:33;;;;;;;24.13;14.27;;;-8.50;99.90;-9.90;99257;;;;595259;241;24055;-78
2024/01/17 00:51:01;;;;;;;28.83;15.47;;;-8.50;99.90;-9.90;99252;;;;594955;241;24047;-78
2024/01/17 00:53:32;;;;;;;29.80;17.93;;;-8.50;99.90;-9.90;99256;;;;594311;241;24102;-79
2024/01/17 00:55:57;;;;;;;27.33;15.17;;;-8.50;99.90;-9.90;99263;;;;594380;241;24148;-78
2024/01/17 00:58:25;;;;;;;32.70;18.77;;;-8.50;99.90;-9.90;99258;;;;594506;241;24076;-79
2024/01/17 01:00:53;;;;;;;26.50;16.53;;;-8.50;99.90;-9.90;99248;;;;594687;241;24075;-79
2024/01/17 01:03:21;;;;;;;29.00;16.90;;;-8.50;99.90;-9.90;99249;;;;594562;241;24067;-78
2024/01/17 01:05:50;;;;;;;27.83;16.23;;;-8.50;99.90;-9.80;99249;;;;594534;241;24089;-79
2024/01/17 01:08:19;;;;;;;22.23;15.07;;;-8.50;99.90;-9.90;99238;;;;594600;241;24062;-79
2024/01/17 01:10:47;;;;;;;28.97;17.10;;;-8.50;99.90;-9.80;99220;;;;594495;241;24130;-78
2024/01/17 01:13:15;;;;;;;26.87;16.87;;;-8.50;99.90;-9.80;99218;;;;594638;241;24083;-78
2024/01/17 01:15:43;;;;;;;26.33;16.47;;;-8.40;99.90;-9.80;99224;;;;594567;241;25091;-79
2024/01/17 01:18:11;;;;;;;23.07;13.50;;;-8.40;99.90;-9.70;99227;;;;594920;241;24051;-78
2024/01/17 01:20:39;;;;;;;24.83;15.63;;;-8.40;99.90;-9.80;99221;;;;594893;241;24083;-80
2024/01/17 01:23:10;;;;;;;31.47;17.57;;;-8.40;99.90;-9.80;99222;;;;594727;241;24090;-80
2024/01/17 01:25:35;;;;;;;33.33;19.53;;;-8.40;99.90;-9.70;99217;;;;595096;240;24070;-80
2024/01/17 01:28:06;;;;;;;33.67;19.43;;;-8.40;99.90;-9.70;99204;;;;595873;241;24071;-80
2024/01/17 01:30:31;;;;;;;29.97;17.80;;;-8.40;99.90;-9.70;99212;;;;595399;241;24067;-80
2024/01/17 01:32:59;;;;;;;33.57;18.03;;;-8.30;99.90;-9.70;99216;;;;595356;241;24136;-77
2024/01/17 01:35:28;;;;;;;25.90;16.73;;;-8.30;99.90;-9.70;99216;;;;595096;241;24114;-79
2024/01/17 01:37:59;;;;;;;28.53;15.07;;;-8.30;99.90;-9.70;99219;;;;595157;241;24063;-79
2024/01/17 01:40:28;;;;;;;27.43;16.57;;;-8.30;99.90;-9.70;99218;;;;588873;241;24118;-79
2024/01/17 01:42:53;;;;;;;26.58;15.00;;;-8.30;99.90;-9.70;99223;;;;580351;241;46040;-79
2024/01/17 01:45:20;;;;;;;22.13;11.07;;;-8.30;99.90;-9.70;99219;;;;594793;241;24098;-80
2024/01/17 01:47:52;;;;;;;20.37;12.83;;;-8.30;99.90;-9.70;99213;;;;595162;241;24064;-78
2024/01/17 01:50:15;;;;;;;25.23;15.57;;;-8.30;99.90;-9.70;99216;;;;585760;241;25086;-80
2024/01/17 01:52:43;;;;;;;29.13;15.33;;;-8.30;99.90;-9.70;99206;;;;595181;241;24072;-80
2024/01/17 01:55:11;;;;;;;27.37;15.50;;;-8.30;99.90;-9.60;99203;;;;594668;241;24063;-79
2024/01/17 01:57:42;;;;;;;27.70;15.17;;;-8.30;99.90;-9.60;99198;;;;594307;241;24178;-79
2024/01/17 02:00:11;;;;;;;28.20;15.17;;;-8.20;99.90;-9.50;99185;;;;594694;241;24074;-79
2024/01/17 02:02:35;;;;;;;27.73;16.53;;;-8.20;99.90;-9.50;99187;;;;594107;241;25132;-79
2024/01/17 02:05:03;;;;;;;25.67;15.53;;;-8.10;99.90;-9.40;99190;;;;594456;241;24055;-78
2024/01/17 02:07:31;;;;;;;20.90;12.47;;;-8.10;99.90;-9.40;99191;;;;594415;241;24063;-79
2024/01/17 02:10:02;;;;;;;20.00;11.98;;;-8.00;99.90;-9.30;99180;;;;580204;241;46096;-79
2024/01/17 02:12:27;;;;;;;26.33;14.87;;;-7.90;99.90;-9.10;99179;;;;585189;241;24081;-79
2024/01/17 02:14:55;;;;;;;28.10;16.33;;;-7.80;99.90;-9.00;99185;;;;590088;241;24028;-79
2024/01/17 02:17:23;;;;;;;30.83;16.17;;;-7.60;99.90;-8.80;99176;;;;594725;241;24159;-79
2024/01/17 02:19:54;;;;;;;30.23;15.77;;;-7.50;99.90;-8.70;99164;;;;583058;241;24107;-78
2024/01/17 02:22:18;;;;;;;27.80;16.07;;;-7.30;99.90;-8.50;99176;;;;594949;241;24063;-79
2024/01/17 02:24:47;;;;;;;24.73;14.63;;;-7.10;99.90;-8.40;99183;;;;595004;241;24039;-79
2024/01/17 02:27:16;;;;;;;30.67;15.20;;;-6.90;99.90;-8.30;99170;;;;594429;241;25103;-77
2024/01/17 02:29:46;;;;;;;25.73;15.80;;;-6.80;99.90;-8.20;99159;;;;594713;241;24157;-80
2024/01/17 02:32:13;;;;;;;33.53;16.67;;;-6.70;99.90;-8.10;99172;;;;594518;241;24061;-79
2024/01/17 02:34:45;;;;;;;21.57;12.00;;;-6.70;99.90;-8.00;99166;;;;594454;241;24086;-79
2024/01/17 02:37:09;;;;;;;25.33;13.10;;;-6.60;99.90;-7.90;99171;;;;586054;240;24057;-79
2024/01/17 02:39:40;;;;;;;22.53;12.17;;;-6.50;99.90;-7.80;99178;;;;586839;241;24127;-77
2024/01/17 02:42:05;;;;;;;19.40;11.50;;;-6.40;99.90;-7.70;99169;;;;589606;240;24063;-78
2024/01/17 02:44:33;;;;;;;24.43;12.83;;;-6.40;99.90;-7.60;99171;;;;595512;241;24037;-77
2024/01/17 02:47:01;;;;;;;24.90;13.87;;;-6.30;99.90;-7.50;99176;;;;595525;241;24105;-79
2024/01/17 02:49:29;;;;;;;24.10;10.90;;;-6.20;99.90;-7.50;99179;;;;586301;241;24428;-79
2024/01/17 02:51:56;;;;;;;15.83;7.57;;;-6.10;99.90;-7.40;99166;;;;595628;241;24047;-77
2024/01/17 02:54:24;;;;;;;19.90;11.00;;;-6.10;99.90;-7.30;99174;;;;595581;241;24076;-80
2024/01/17 02:56:52;;;;;;;23.23;12.13;;;-6.00;99.90;-7.30;99161;;;;594822;241;24178;-79
2024/01/17 02:59:20;;;;;;;28.00;14.20;;;-5.90;99.90;-7.20;99162;;;;594912;241;24102;-78
2024/01/17 03:01:48;;;;;;;16.80;9.23;;;-5.80;99.90;-7.10;99156;;;;594869;241;24073;-78
2024/01/17 03:04:16;;;;;;;25.87;13.90;;;-5.80;99.90;-7.10;99154;;;;594691;241;24051;-79
2024/01/17 03:06:46;;;;;;;21.57;11.27;;;-5.70;99.90;-7.00;99159;;;;594826;241;24048;-78
2024/01/17 03:09:14;;;;;;;30.77;15.33;;;-5.60;99.90;-7.00;99150;;;;594770;241;24134;-79
2024/01/17 03:11:42;;;;;;;21.70;10.50;;;-5.60;99.90;-6.90;99152;;;;594853;241;24072;-79
2024/01/17 03:14:10;;;;;;;26.70;15.07;;;-5.60;99.90;-6.90;99147;;;;594503;241;24077;-78
2024/01/17 03:16:38;;;;;;;27.03;14.43;;;-5.50;99.90;-6.80;99148;;;;594717;241;24138;-78
2024/01/17 03:19:07;;;;;;;28.70;14.27;;;-5.50;99.90;-6.80;99139;;;;594345;241;24055;-79
2024/01/17 03:21:34;;;;;;;34.20;15.80;;;-5.50;99.90;-6.80;99145;;;;594857;241;24074;-80
2024/01/17 03:24:02;;;;;;;27.13;14.93;;;-5.50;99.90;-6.70;99139;;;;594937;241;24090;-78
2024/01/17 03:26:30;;;;;;;30.83;14.73;;;-5.40;99.90;-6.70;99140;;;;594892;241;24127;-80
2024/01/17 03:28:57;;;;;;;32.20;16.47;;;-5.40;99.90;-6.70;99144;;;;594456;241;24092;-80
2024/01/17 03:31:25;;;;;;;28.43;15.33;;;-5.40;99.90;-6.70;99148;;;;594537;241;24064;-78
2024/01/17 03:33:53;;;;;;;28.43;14.83;;;-5.40;99.90;-6.60;99143;;;;594436;241;24074;-78
2024/01/17 03:36:21;;;;;;;22.60;13.30;;;-5.30;99.90;-6.60;99141;;;;594619;241;24086;-79
2024/01/17 03:38:49;;;;;;;31.10;16.80;;;-5.30;99.90;-6.60;99143;;;;594457;241;24087;-79
2024/01/17 03:41:17;;;;;;;30.43;17.13;;;-5.30;99.90;-6.50;99139;;;;594686;241;24063;-78
2024/01/17 03:43:45;;;;;;;25.93;13.87;;;-5.30;99.90;-6.50;99147;;;;584077;241;24100;-80
2024/01/17 03:46:16;;;;;;;20.33;12.13;;;-5.20;99.90;-6.50;99138;;;;594972;241;24054;-81
2024/01/17 03:48:41;;;;;;;32.03;16.53;;;-5.20;99.90;-6.50;99131;;;;594714;239;24188;-77
2024/01/17 03:51:09;;;;;;;28.37;15.80;;;-5.20;99.90;-6.50;99138;;;;596287;241;24049;-78
2024/01/17 03:53:38;;;;;;;28.73;18.73;;;-5.20;99.90;-6.40;99141;;;;590876;241;39551;-80
2024/01/17 03:56:07;;;;;;;25.80;14.77;;;-5.10;99.90;-6.40;99137;;;;590544;241;46094;-78
2024/01/17 03:58:35;;;;;;;6.53;4.77;;;-5.10;99.90;-6.30;99139;;;;595265;241;24070;-79
2024/01/17 04:01:04;;;;;;;29.70;15.43;;;-5.10;99.90;-6.30;99127;;;;595084;241;24059;-80
2024/01/17 04:03:31;;;;;;;26.57;15.07;;;-5.10;99.90;-6.30;99107;;;;585765;241;24037;-78
2024/01/17 04:05:59;;;;;;;30.43;17.57;;;-5.00;99.90;-6.40;99105;;;;595095;241;24066;-79
2024/01/17 04:08:27;;;;;;;28.93;15.90;;;-5.10;99.90;-6.50;99100;;;;594740;241;24065;-78
2024/01/17 04:10:55;;;;;;;27.53;16.83;;;-5.10;99.90;-6.60;99107;;;;594873;241;24069;-78
2024/01/17 04:13:23;;;;;;;24.50;13.07;;;-5.20;99.90;-6.60;99100;;;;585581;241;24097;-78
2024/01/17 04:15:51;;;;;;;38.47;19.07;;;-5.30;99.90;-6.70;99095;;;;594902;241;24081;-78
2024/01/17 04:18:20;;;;;;;24.40;11.83;;;-5.30;99.90;-6.70;99112;;;;585609;241;24064;-78
2024/01/17 04:20:48;;;;;;;29.83;16.60;;;-5.40;99.90;-6.60;99106;;;;594576;241;24069;-78
2024/01/17 04:23:16;;;;;;;28.60;17.60;;;-5.40;99.90;-6.60;99105;;;;595256;241;24081;-79
2024/01/17 04:25:45;;;;;;;31.10;15.33;;;-5.30;99.90;-6.60;99103;;;;595024;241;24082;-79
2024/01/17 04:28:13;;;;;;;31.27;18.03;;;-5.30;99.90;-6.50;99114;;;;594645;241;24093;-78
2024/01/17 04:30:44;;;;;;;22.77;13.33;;;-5.30;99.90;-6.50;99107;;;;594415;241;25124;-80
2024/01/17 04:33:09;;;;;;;22.23;14.03;;;-5.20;99.90;-6.40;99106;;;;594456;241;25114;-78
2024/01/17 04:35:38;;;;;;;22.20;14.47;;;-5.20;99.90;-6.40;99115;;;;585418;241;24052;-78
2024/01/17 04:38:07;;;;;;;20.83;11.93;;;-5.10;99.90;-6.40;99119;;;;594442;241;24093;-78
2024/01/17 04:40:34;;;;;;;23.27;14.67;;;-5.10;99.90;-6.30;99118;;;;594609;241;24070;-79
2024/01/17 04:43:02;;;;;;;28.03;16.87;;;-5.00;99.90;-6.20;99117;;;;594566;241;26271;-77
2024/01/17 04:45:30;;;;;;;28.83;16.87;;;-5.00;99.90;-6.10;99106;;;;585411;241;24072;-79
2024/01/17 04:47:58;;;;;;;22.10;12.23;;;-4.90;99.90;-6.00;99103;;;;594598;241;24094;-78
2024/01/17 04:50:26;;;;;;;26.87;14.93;;;-4.80;99.90;-6.00;99098;;;;594420;241;24058;-78
2024/01/17 04:52:54;;;;;;;19.57;12.43;;;-4.70;99.90;-5.90;99099;;;;594975;241;24059;-78
2024/01/17 04:55:22;;;;;;;20.97;12.53;;;-4.70;99.90;-5.90;99089;;;;594883;241;24028;-76
2024/01/17 04:57:50;;;;;;;18.73;11.30;;;-4.60;99.90;-5.80;99091;;;;594681;241;24114;-78
2024/01/17 05:00:18;;;;;;;23.07;14.00;;;-4.60;99.90;-5.70;99085;;;;594982;240;24088;-78
2024/01/17 05:02:46;;;;;;;30.33;15.17;;;-4.50;99.90;-5.70;99087;;;;595820;241;24065;-78
2024/01/17 05:05:14;;;;;;;21.90;12.93;;;-4.40;99.90;-5.60;99084;;;;595579;241;24083;-78
2024/01/17 05:07:42;;;;;;;29.23;17.97;;;-4.40;99.90;-5.60;99080;;;;586139;241;24125;-78
2024/01/17 05:10:09;;;;;;;27.43;16.30;;;-4.00;99.90;-5.50;99080;;;;595271;241;24047;-77
2024/01/17 05:12:37;;;;;;;17.20;10.23;;;-4.30;99.90;-5.40;99081;;;;585969;241;24114;-78
2024/01/17 05:15:05;;;;;;;25.53;13.90;;;-4.20;99.90;-5.40;99072;;;;595264;241;24066;-77
2024/01/17 05:17:33;;;;;;;24.37;13.37;;;-4.20;99.90;-5.30;99065;;;;586044;241;24093;-78
2024/01/17 05:20:01;;;;;;;23.70;13.80;;;-4.10;99.90;-5.30;99064;;;;594825;241;24138;-78
2024/01/17 05:22:30;;;;;;;17.00;10.53;;;-4.00;99.90;-5.20;99066;;;;594830;241;24075;-77
2024/01/17 05:24:58;;;;;;;29.57;17.43;;;-4.00;99.90;-5.20;99071;;;;595227;241;24051;-76
2024/01/17 05:27:27;;;;;;;21.63;11.57;;;-3.90;99.90;-5.20;99062;;;;594982;241;24067;-78
2024/01/17 05:29:55;;;;;;;21.60;13.17;;;-3.90;99.90;-5.10;99057;;;;594797;241;24132;-77
2024/01/17 05:32:23;;;;;;;32.83;17.63;;;-3.90;99.90;-5.10;99050;;;;594941;241;24062;-78
2024/01/17 05:34:53;;;;;;;21.17;13.17;;;-3.80;99.90;-5.10;99048;;;;595055;241;24085;-78
2024/01/17 05:37:21;;;;;;;29.27;17.53;;;-3.80;99.90;-5.00;99049;;;;594517;241;24079;-77
2024/01/17 05:39:47;;;;;;;30.40;18.00;;;-3.80;99.90;-5.00;99044;;;;594607;241;24069;-78
2024/01/17 05:42:15;;;;;;;31.13;16.70;;;-3.80;99.90;-5.00;99041;;;;594564;241;24099;-77
2024/01/17 05:44:43;;;;;;;28.27;17.53;;;-3.70;99.90;-4.90;99040;;;;594684;241;24085;-78
2024/01/17 05:47:10;;;;;;;27.97;17.17;;;-3.70;99.90;-4.90;99038;;;;594546;241;24086;-78
2024/01/17 05:49:38;;;;;;;32.38;20.60;;;-3.70;99.90;-4.90;99044;;;;589411;241;35194;-78
2024/01/17 05:52:06;;;;;;;14.10;6.23;;;-3.70;99.90;-4.90;99040;;;;594724;241;24117;-79
2024/01/17 05:54:34;;;;;;;27.07;15.30;;;-3.70;99.90;-4.80;99037;;;;595061;241;24107;-79
2024/01/17 05:57:02;;;;;;;33.87;17.27;;;-3.60;99.90;-4.80;99040;;;;594936;241;24074;-78
2024/01/17 05:59:30;;;;;;;34.17;18.07;;;-3.60;99.90;-4.80;99031;;;;594979;241;24036;-79
2024/01/17 06:01:59;;;;;;;26.80;16.20;;;-3.50;99.90;-4.70;99032;;;;594443;241;24108;-77
2024/01/17 06:04:27;;;;;;;30.20;17.70;;;-3.50;99.90;-4.70;99023;;;;594535;241;24155;-78
2024/01/17 06:06:58;;;;;;;25.10;15.40;;;-3.50;99.90;-4.70;99023;;;;594409;241;24087;-78
2024/01/17 06:09:23;;;;;;;33.90;19.37;;;-3.50;99.90;-4.70;99027;;;;594356;241;24079;-76
2024/01/17 06:11:51;;;;;;;27.70;15.47;;;-3.50;99.90;-4.70;99028;;;;595042;239;24122;-76
2024/01/17 06:14:19;;;;;;;34.10;18.10;;;-3.50;99.90;-4.60;99036;;;;596014;241;24245;-79
2024/01/17 06:16:47;;;;;;;31.77;16.83;;;-3.40;99.90;-4.60;99024;;;;595505;241;24046;-79
2024/01/17 06:19:16;;;;;;;30.13;17.77;;;-3.40;99.90;-4.60;99022;;;;595212;241;24087;-77
2024/01/17 06:21:45;;;;;;;28.30;16.00;;;-3.40;99.90;-4.60;99034;;;;595268;241;24066;-79
2024/01/17 06:24:13;;;;;;;27.37;15.47;;;-3.40;99.90;-4.60;99022;;;;595006;241;24044;-78
2024/01/17 06:26:42;;;;;;;39.17;17.50;;;-3.30;99.90;-4.60;99029;;;;595336;241;24060;-79
2024/01/17 06:29:10;;;;;;;31.00;17.00;;;-3.40;99.90;-4.50;99022;;;;595078;241;24066;-79
2024/01/17 06:31:38;;;;;;;28.43;14.57;;;-3.30;99.90;-4.50;99038;;;;594914;241;24074;-78
2024/01/17 06:34:08;;;;;;;33.37;18.10;;;-3.30;99.90;-4.50;99031;;;;594670;241;24106;-79
2024/01/17 06:36:33;;;;;;;31.00;16.83;;;-3.30;99.90;-4.50;99027;;;;585184;241;24075;-79
2024/01/17 06:39:01;;;;;;;24.27;13.63;;;-3.30;99.90;-4.50;99016;;;;594830;241;24056;-79
2024/01/17 06:41:30;;;;;;;33.27;15.87;;;-3.30;99.90;-4.50;99017;;;;594707;241;24081;-78
2024/01/17 06:43:57;;;;;;;33.93;17.03;;;-3.30;99.90;-4.50;99014;;;;594891;241;24070;-79
2024/01/17 06:46:25;;;;;;;34.03;16.37;;;-3.30;99.90;-4.50;99010;;;;594773;241;24087;-77
2024/01/17 06:48:53;;;;;;;25.23;16.03;;;-3.20;99.90;-4.50;99002;;;;594461;241;24063;-79
2024/01/17 06:51:21;;;;;;;17.17;10.63;;;-3.20;99.90;-4.40;99010;;;;594525;241;24106;-77
2024/01/17 06:53:49;;;;;;;15.10;9.17;;;-3.20;99.90;-4.40;99007;;;;594458;241;24075;-78
2024/01/17 06:56:17;;;;;;;26.27;14.90;;;-3.20;99.90;-4.40;99003;;;;594925;241;24071;-79
2024/01/17 06:58:45;;;;;;;26.30;13.03;;;-3.20;99.90;-4.30;98988;;;;594686;241;24104;-78
2024/01/17 07:01:13;;;;;;;20.10;11.67;;;-3.20;99.90;-4.30;98996;;;;594976;241;24040;-79
2024/01/17 07:03:41;;;;;;;25.00;13.87;;;-3.10;99.90;-4.30;98986;;;;594518;241;24070;-77
2024/01/17 07:06:10;;;;;;;25.77;12.97;;;-3.10;99.90;-4.30;98982;;;;594416;241;24099;-77
2024/01/17 07:08:38;;;;;;;22.37;14.60;;;-3.10;99.90;-4.20;98988;;;;594594;241;24056;-79
2024/01/17 07:11:07;;;;;;;27.13;15.03;;;-3.00;99.90;-4.20;98984;;;;594462;241;24106;-78
2024/01/17 07:13:35;;;;;;;22.20;12.87;;;-3.00;99.90;-4.10;98977;;;;594465;241;24079;-79
2024/01/17 07:16:03;;;;;;;24.20;14.07;;;-3.00;99.90;-4.10;98977;;;;594516;241;24074;-78
2024/01/17 07:18:34;;;;;;;32.70;17.97;;;-2.90;99.90;-4.10;98978;;;;594398;241;24091;-80
2024/01/17 07:21:02;;;;;;;22.27;13.43;;;-2.90;99.90;-4.10;98973;;;;594409;241;24058;-79
2024/01/17 07:23:27;;;;;;;26.43;14.30;;;-2.90;99.90;-4.00;98967;;;;585746;240;24073;-78
2024/01/17 07:25:55;;;;;;;28.57;16.13;;;-2.90;99.90;-4.00;98964;;;;595970;241;24090;-79
2024/01/17 07:28:23;;;;;;;24.63;13.77;;;-2.80;99.90;-4.00;98961;;;;595889;241;24085;-78
2024/01/17 07:30:51;;;;;;;20.63;13.47;;;-2.80;99.90;-3.90;98948;;;;595751;241;24109;-77
2024/01/17 07:33:19;;;;;;;20.33;12.93;;;-2.80;99.90;-3.90;98949;;;;595637;241;24041;-78
2024/01/17 07:35:47;;;;;;;28.87;15.03;;;-2.70;99.90;-3.90;98947;;;;585854;241;24106;-78
2024/01/17 07:38:14;;;;;;;26.00;15.43;;;-2.70;99.90;-3.80;98948;;;;595140;241;24044;-78
2024/01/17 07:40:42;;;;;;;22.57;14.23;;;-2.60;99.90;-3.70;98936;;;;595047;241;24051;-77
2024/01/17 07:43:10;;;;;;;21.03;12.27;;;-2.60;99.90;-3.70;98926;;;;585691;241;24059;-78
2024/01/17 07:45:38;;;;;;;22.27;13.63;;;-2.60;99.90;-3.70;98913;;;;585565;241;24082;-78
2024/01/17 07:48:06;;;;;;;27.37;16.90;;;-2.50;99.90;-3.60;98915;;;;594686;241;24102;-78
2024/01/17 07:50:34;;;;;;;28.33;15.43;;;-2.50;99.90;-3.60;98909;;;;594815;241;24092;-78
2024/01/17 07:53:02;;;;;;;27.13;15.47;;;-2.40;99.90;-3.50;98904;;;;594750;241;24084;-79
2024/01/17 07:55:30;;;;;;;23.03;13.87;;;-2.40;99.90;-3.50;98897;;;;594866;241;24059;-77
2024/01/17 07:57:59;;;;;;;23.57;14.07;;;-2.30;99.90;-3.50;98892;;;;595203;241;24086;-77
2024/01/17 08:00:26;;;;;;;26.77;15.30;;;-2.30;99.90;-3.50;98880;;;;594980;241;24082;-80
2024/01/17 08:02:54;;;;;;;23.17;13.97;;;-2.30;99.90;-3.40;98882;;;;594933;241;24053;-77
2024/01/17 08:05:22;;;;;;;24.50;14.47;;;-2.20;99.90;-3.40;98880;;;;594499;241;24100;-78
2024/01/17 08:07:49;;;;;;;25.40;14.70;;;-2.20;99.90;-3.40;98872;;;;585416;241;24052;-77
2024/01/17 08:10:21;;;;;;;25.13;15.53;;;-2.20;99.90;-3.30;98879;;;;594555;241;24147;-77
2024/01/17 08:12:45;;;;;;;30.23;14.70;;;-2.20;99.90;-3.30;98872;;;;585476;241;24067;-78
2024/01/17 08:15:16;;;;;;;23.13;13.77;;;-2.10;99.90;-3.20;98869;;;;594512;241;24076;-78
2024/01/17 08:17:45;;;;;;;28.47;14.57;;;-2.00;99.90;-3.20;98875;;;;594658;241;24158;-78
2024/01/17 08:20:12;;;;;;;13.50;9.07;;;-2.10;99.90;-3.20;98864;;;;585099;241;24064;-78
2024/01/17 08:22:38;;;;;;;16.00;8.00;;;-2.10;99.90;-3.10;98873;;;;585241;241;24148;-78
2024/01/17 08:25:06;;;;;;;33.57;14.73;;;-1.90;99.90;-3.00;98865;;;;594476;241;24144;-78
2024/01/17 08:27:34;;;;;;;30.07;12.97;;;-1.90;99.90;-3.00;98869;;;;585406;241;24100;-78
2024/01/17 08:30:04;;;;;;;9.90;6.30;;;-1.80;99.90;-2.90;98868;;;;594619;241;24102;-79
2024/01/17 08:32:29;;;;;;;19.73;11.63;;;-1.80;99.90;-2.90;98869;;;;585410;241;25098;-78
2024/01/17 08:34:57;;;;;;;19.43;10.40;;;-1.70;99.90;-2.80;98876;;;;594937;240;24098;-77
2024/01/17 08:37:25;;;;;;;24.60;12.20;;;-1.70;99.90;-2.80;98864;;;;595893;241;24127;-77
2024/01/17 08:39:54;;;;;;;13.10;5.33;;;-1.60;99.90;-2.70;98860;;;;596343;241;24050;-76
2024/01/17 08:42:21;;;;;;;6.67;4.93;;;-1.60;99.90;-2.70;98853;;;;596311;241;24065;-78
2024/01/17 08:44:50;;;;;;;4.70;3.57;;;-1.50;99.90;-2.70;98854;;;;595610;241;24090;-77
2024/01/17 08:47:18;;;;;;;5.67;4.10;;;-1.60;99.90;-2.70;98843;;;;595066;241;24170;-77
2024/01/17 08:49:46;;;;;;;9.37;4.47;;;-1.50;99.90;-2.60;98864;;;;595285;241;24064;-77
2024/01/17 08:52:14;;;;;;;10.20;4.37;;;-1.50;99.90;-2.60;98832;;;;583329;241;24041;-78
2024/01/17 08:54:42;;;;;;;8.83;5.17;;;-1.40;99.90;-2.50;98829;;;;595882;241;24059;-76
2024/01/17 08:57:11;;;;;;;10.03;4.30;;;-1.40;99.90;-2.50;98819;;;;596076;241;24087;-78
2024/01/17 08:59:39;;;;;;;2.40;2.20;;;-1.40;99.90;-2.50;98827;;;;595288;241;24069;-78
2024/01/17 09:02:07;;;;;;;2.80;2.43;;;-1.30;99.90;-2.50;98817;;;;595299;241;24045;-77
2024/01/17 09:04:35;;;;;;;7.67;4.87;;;-1.30;99.90;-2.40;98818;;;;595217;241;24103;-77
2024/01/17 09:07:03;;;;;;;8.80;3.57;;;-1.30;99.90;-2.40;98824;;;;594949;241;25112;-76
2024/01/17 09:09:30;;;;;;;6.37;2.87;;;-1.30;99.90;-2.40;98821;;;;594798;241;24058;-77
2024/01/17 09:11:58;;;;;;;8.97;3.50;;;-1.20;99.90;-2.40;98811;;;;594771;241;24064;-77
2024/01/17 09:14:26;;;;;;;13.43;5.07;;;-1.30;99.90;-2.30;98814;;;;594389;241;24110;-78
2024/01/17 09:16:55;;;;;;;11.33;4.73;;;-1.20;99.90;-2.30;98801;;;;585315;241;24048;-76
2024/01/17 09:19:24;;;;;;;3.73;3.47;;;-1.20;99.90;-2.30;98795;;;;594619;241;24078;-77
2024/01/17 09:21:52;;;;;;;4.37;3.97;;;-1.20;99.90;-2.30;98782;;;;594514;241;24064;-77
2024/01/17 09:24:23;;;;;;;11.87;6.63;;;-1.20;99.90;-2.20;98782;;;;585274;241;24107;-77
2024/01/17 09:26:51;;;;;;;30.62;13.13;;;-1.10;99.90;-2.20;98795;;;;589126;241;46106;-77
2024/01/17 09:29:16;;;;;;;11.60;6.67;;;-1.10;99.90;-2.20;98782;;;;594886;241;24050;-78
2024/01/17 09:31:43;;;;;;;8.53;4.97;;;-1.10;99.90;-2.10;98784;;;;594813;241;24083;-76
2024/01/17 09:34:11;;;;;;;10.07;2.77;;;-1.00;99.90;-2.10;98787;;;;594896;241;24061;-76
2024/01/17 09:36:39;;;;;;;5.47;4.30;;;-1.00;99.90;-2.00;98780;;;;594861;241;24069;-76
2024/01/17 09:39:07;;;;;;;8.23;4.40;;;-0.90;99.90;-2.00;98771;;;;594499;241;24061;-78
2024/01/17 09:41:35;;;;;;;7.87;3.47;;;-0.80;99.90;-1.90;98771;;;;594665;241;24054;-77
2024/01/17 09:44:03;;;;;;;5.30;3.07;;;-0.70;99.90;-1.80;98756;;;;594570;241;24067;-77
2024/01/17 09:46:34;;;;;;;7.80;3.53;;;-0.60;99.90;-1.80;98751;;;;594831;240;24106;-77
2024/01/17 09:48:59;;;;;;;8.70;5.63;;;-0.70;99.90;-1.80;98745;;;;577763;241;24066;-79
2024/01/17 09:51:31;;;;;;;4.13;3.83;;;-0.60;99.90;-1.70;98755;;;;595492;241;24075;-77
2024/01/17 09:53:55;;;;;;;7.60;4.93;;;-0.60;99.90;-1.70;98756;;;;586046;241;24077;-75
2024/01/17 09:56:25;;;;;;;11.43;6.87;;;-0.60;99.90;-1.70;98742;;;;594993;241;24048;-78
2024/01/17 09:58:51;;;;;;;5.63;2.83;;;-0.60;99.90;-1.70;98731;;;;586181;241;24086;-78
2024/01/17 10:01:20;;;;;;;3.80;2.97;;;-0.50;99.90;-1.60;98741;;;;585768;241;24044;-76
2024/01/17 10:03:48;;;;;;;14.87;3.87;;;-0.50;99.90;-1.60;98735;;;;586095;241;24067;-77
2024/01/17 10:06:15;;;;;;;3.80;2.97;;;-0.50;99.90;-1.60;98728;;;;595253;241;24068;-77
2024/01/17 10:08:47;;;;;;;3.77;3.43;;;-0.50;99.90;-1.60;98723;;;;588643;243;24155;-77
2024/01/17 10:11:12;;;;;;;6.00;4.00;;;-0.40;99.90;-1.50;98718;;;;580524;244;24113;-78
2024/01/17 10:13:39;;;;;;;8.03;4.67;;;-0.40;99.90;-1.60;98712;;;;571164;246;24105;-77
2024/01/17 10:16:10;;;;;;;4.43;4.00;;;-0.40;99.90;-1.60;98699;;;;585450;241;24101;-77
2024/01/17 10:18:35;;;;;;;6.17;2.73;;;-0.40;99.90;-1.60;98703;;;;574318;246;24200;-77
2024/01/17 10:21:03;;;;;;;5.47;4.83;;;-0.50;99.90;-1.60;98703;;;;572520;247;24093;-78
2024/01/17 10:23:32;;;;;;;4.77;2.27;;;-0.50;99.90;-1.60;98701;;;;582145;246;24084;-77
2024/01/17 10:25:59;;;;;;;9.03;4.57;;;-0.50;99.90;-1.70;98691;;;;571016;247;24090;-78
2024/01/17 10:28:27;;;;;;;8.00;4.63;;;-0.50;99.90;-1.70;98687;;;;574534;246;24088;-79
2024/01/17 10:30:55;;;;;;;4.47;2.47;;;-0.50;99.90;-1.60;98679;;;;572314;247;24091;-77
2024/01/17 10:33:23;;;;;;;7.13;3.87;;;-0.50;99.90;-1.60;98675;;;;574293;246;24114;-78
2024/01/17 10:35:51;;;;;;;5.77;4.00;;;-0.50;99.90;-1.60;98664;;;;585404;241;24084;-78
2024/01/17 10:38:19;;;;;;;3.03;2.77;;;-0.50;99.90;-1.50;98663;;;;574252;246;24081;-76
2024/01/17 10:40:47;;;;;;;3.77;3.33;;;-0.40;99.90;-1.50;98664;;;;584087;246;24105;-77
2024/01/17 10:43:16;;;;;;;8.40;3.87;;;-0.40;99.90;-1.50;98653;;;;580566;244;24129;-75
2024/01/17 10:45:44;;;;;;;7.27;4.60;;;-0.30;99.90;-1.40;98652;;;;579860;247;24138;-77
2024/01/17 10:48:11;;;;;;;5.40;3.63;;;-0.30;99.90;-1.30;98650;;;;585631;242;24072;-77
2024/01/17 10:50:39;;;;;;;19.50;8.48;;;-0.10;99.90;-1.20;98644;;;;589521;241;37090;-77
2024/01/17 10:53:08;;;;;;;6.27;5.00;;;-0.10;99.90;-1.10;98643;;;;583196;246;24135;-77
2024/01/17 10:55:38;;;;;;;5.00;2.93;;;0.00;99.90;-1.10;98636;;;;572421;247;24139;-77
2024/01/17 10:58:06;;;;;;;2.47;2.27;;;0.10;99.90;-1.00;98640;;;;582332;244;24151;-77
2024/01/17 11:00:34;;;;;;;6.27;2.63;;;0.10;99.90;-1.00;98630;;;;573279;246;24145;-78
2024/01/17 11:03:07;;;;;;;3.17;2.97;;;0.10;99.90;-1.00;98618;;;;577929;242;24127;-80
2024/01/17 11:05:33;;;;;;;6.10;2.97;;;0.20;99.90;-0.90;98617;;;;582467;246;24059;-78
2024/01/17 11:08:01;;;;;;;6.23;3.63;;;0.20;99.90;-0.80;98612;;;;572506;247;24144;-78